Time;durP1;ratioP1;P1;durP2;ratioP2;P2;SDS_P1;SDS_P2;PMS_P1;PMS_P2;Temp;Humidity;BMP_temperature;BMP_pressure;BME280_temperature;BME280_humidity;BME280_pressure;Samples;Min_cycle;Max_cycle;Signal;HPM_P1;HPM_P2
2021/06/22 00:01:06;;;;;;;19.42;6.22;;;13.30;99.90;;;;;;12442872;28;20409;-39
2021/06/22 00:07:08;;;;;;;14.65;6.22;;;13.40;99.90;;;;;;12430756;28;20053;-40
2021/06/22 00:13:10;;;;;;;16.00;6.60;;;13.40;99.90;;;;;;12443082;28;20103;-39
2021/06/22 00:19:13;;;;;;;14.90;6.93;;;13.40;99.90;;;;;;12438399;28;20060;-39
2021/06/22 00:25:16;;;;;;;13.90;6.82;;;13.50;99.90;;;;;;12446220;28;20632;-39
2021/06/22 00:31:18;;;;;;;15.17;7.37;;;13.30;99.90;;;;;;12437254;28;20041;-41
2021/06/22 00:37:20;;;;;;;13.10;7.32;;;13.10;99.90;;;;;;12443413;28;20049;-39
2021/06/22 00:43:22;;;;;;;15.02;7.07;;;13.20;99.90;;;;;;12437948;28;20061;-39
2021/06/22 00:49:24;;;;;;;12.30;6.60;;;13.20;99.90;;;;;;12439867;28;20502;-39
2021/06/22 00:55:32;;;;;;;16.67;6.90;;;13.10;99.90;;;;;;12441379;28;20391;-39
2021/06/22 01:01:54;;;;;;;17.35;7.05;;;13.10;99.90;;;;;;12434988;28;20049;-39
2021/06/22 01:07:58;;;;;;;17.67;7.05;;;13.10;99.90;;;;;;12429300;28;20061;-41
2021/06/22 01:14:00;;;;;;;15.33;7.53;;;13.00;99.90;;;;;;12433681;28;20098;-39
2021/06/22 01:20:02;;;;;;;19.63;7.50;;;13.00;99.90;;;;;;12437910;28;20512;-43
2021/06/22 01:26:04;;;;;;;16.33;7.88;;;13.00;99.90;;;;;;12441754;28;20042;-39
2021/06/22 01:32:08;;;;;;;16.70;7.57;;;13.00;99.90;;;;;;12448044;28;20041;-39
2021/06/22 01:38:10;;;;;;;26.02;7.47;;;13.00;99.90;;;;;;12449397;28;20486;-39
2021/06/22 01:44:12;;;;;;;15.93;7.07;;;12.90;99.90;;;;;;12445682;28;20049;-39
2021/06/22 01:50:16;;;;;;;17.02;8.05;;;12.90;99.90;;;;;;12445008;28;20430;-39
2021/06/22 01:56:18;;;;;;;12.73;7.20;;;12.80;99.90;;;;;;12447044;28;21072;-40
2021/06/22 02:02:19;;;;;;;14.40;6.78;;;12.90;99.90;;;;;;12446086;28;20121;-38
2021/06/22 02:08:22;;;;;;;13.90;6.90;;;12.90;99.90;;;;;;12444896;28;20060;-39
2021/06/22 02:14:24;;;;;;;15.05;5.95;;;12.80;99.90;;;;;;12442127;28;20099;-39
2021/06/22 02:20:27;;;;;;;15.85;6.97;;;12.80;99.90;;;;;;12441288;28;20589;-39
2021/06/22 02:26:28;;;;;;;14.95;6.35;;;12.70;99.90;;;;;;12449599;28;20084;-39
2021/06/22 02:32:30;;;;;;;18.30;7.18;;;12.70;99.90;;;;;;12443328;28;20061;-39
2021/06/22 02:38:32;;;;;;;14.77;5.63;;;12.90;99.90;;;;;;12435369;28;20057;-39
2021/06/22 02:44:34;;;;;;;19.70;5.75;;;12.90;99.90;;;;;;12438725;28;20050;-39
2021/06/22 02:50:39;;;;;;;22.50;5.90;;;12.90;99.90;;;;;;12445389;28;20403;-39
2021/06/22 02:56:41;;;;;;;15.75;5.70;;;12.90;99.90;;;;;;12441781;28;20096;-39
2021/06/22 03:02:43;;;;;;;17.42;6.07;;;12.90;99.90;;;;;;12445164;28;20135;-39
2021/06/22 03:08:45;;;;;;;10.15;6.18;;;12.90;99.90;;;;;;12445253;28;20172;-39
2021/06/22 03:14:47;;;;;;;13.95;5.70;;;12.90;99.90;;;;;;12443897;28;20604;-39
2021/06/22 03:20:48;;;;;;;16.85;6.00;;;13.00;99.90;;;;;;12444642;28;20053;-39
2021/06/22 03:26:50;;;;;;;16.15;6.25;;;13.10;99.90;;;;;;12432287;28;20103;-40
2021/06/22 03:32:52;;;;;;;18.02;6.45;;;13.10;99.90;;;;;;12442951;28;20052;-39
2021/06/22 03:38:54;;;;;;;14.75;6.35;;;13.10;99.90;;;;;;12433693;28;20049;-39
2021/06/22 03:45:01;;;;;;;17.20;6.53;;;13.00;99.90;;;;;;12440193;28;20056;-39
2021/06/22 03:51:03;;;;;;;16.65;6.43;;;13.00;99.90;;;;;;12437496;28;20128;-42
2021/06/22 03:57:05;;;;;;;14.80;7.10;;;13.00;99.90;;;;;;12441546;28;20053;-42
2021/06/22 04:03:09;;;;;;;13.05;7.50;;;13.00;99.90;;;;;;12440306;28;20053;-43
2021/06/22 04:09:11;;;;;;;17.67;9.67;;;13.10;99.90;;;;;;12438972;28;20104;-42
2021/06/22 04:15:13;;;;;;;18.77;9.95;;;13.00;99.90;;;;;;12433682;28;20819;-42
2021/06/22 04:21:15;;;;;;;21.20;10.93;;;13.00;99.90;;;;;;12437440;28;20044;-39
2021/06/22 04:27:17;;;;;;;20.13;11.10;;;13.10;99.90;;;;;;12438813;28;20061;-39
2021/06/22 04:33:19;;;;;;;20.48;10.60;;;13.10;99.90;;;;;;12443735;28;20372;-39
2021/06/22 04:39:21;;;;;;;17.58;9.88;;;13.00;99.90;;;;;;12430798;28;20062;-39
2021/06/22 04:45:23;;;;;;;21.83;10.15;;;13.00;99.90;;;;;;12435052;28;20049;-39
2021/06/22 04:51:25;;;;;;;18.75;9.25;;;13.10;99.90;;;;;;12438197;28;20136;-39
2021/06/22 04:57:27;;;;;;;17.58;9.15;;;13.20;99.90;;;;;;12429297;28;20057;-39
2021/06/22 05:03:31;;;;;;;20.00;8.82;;;13.20;99.90;;;;;;12447830;28;20107;-39
2021/06/22 05:09:33;;;;;;;13.40;8.47;;;13.40;99.90;;;;;;12446138;28;20104;-39
2021/06/22 05:15:35;;;;;;;14.35;8.10;;;13.50;99.90;;;;;;12448003;28;20588;-39
2021/06/22 05:21:37;;;;;;;16.77;8.68;;;13.60;99.90;;;;;;12450250;28;20119;-39
2021/06/22 05:27:38;;;;;;;27.00;8.43;;;13.60;99.90;;;;;;12446634;28;20095;-39
2021/06/22 05:33:40;;;;;;;13.73;8.02;;;13.70;99.90;;;;;;12450226;28;20057;-38
2021/06/22 05:39:42;;;;;;;14.20;7.47;;;13.70;99.90;;;;;;12446671;28;20109;-39
2021/06/22 05:45:44;;;;;;;17.60;8.65;;;13.80;99.90;;;;;;12447854;28;20111;-39
2021/06/22 05:51:46;;;;;;;15.20;7.85;;;13.90;99.90;;;;;;12457018;28;20079;-39
2021/06/22 05:57:51;;;;;;;15.15;8.90;;;14.20;99.90;;;;;;12447610;28;20061;-39
2021/06/22 06:03:52;;;;;;;21.58;10.88;;;14.40;99.90;;;;;;12445371;28;20102;-40
2021/06/22 06:09:54;;;;;;;15.88;10.25;;;14.10;99.90;;;;;;12448064;28;20054;-39
2021/06/22 06:15:56;;;;;;;21.35;10.20;;;14.20;99.90;;;;;;12445534;28;20049;-39
2021/06/22 06:21:58;;;;;;;13.48;9.00;;;14.40;99.90;;;;;;12446691;28;20115;-40
2021/06/22 06:28:04;;;;;;;17.15;7.85;;;14.40;99.90;;;;;;12442450;28;20053;-42
2021/06/22 06:34:06;;;;;;;17.27;8.63;;;14.50;99.90;;;;;;12450341;28;20049;-39
2021/06/22 06:40:09;;;;;;;14.82;9.10;;;14.50;99.90;;;;;;12434305;28;20077;-39
2021/06/22 06:46:11;;;;;;;19.95;10.98;;;14.50;99.90;;;;;;12448067;28;20049;-39
2021/06/22 06:52:13;;;;;;;17.88;10.23;;;14.60;99.90;;;;;;12443960;28;20128;-40
2021/06/22 06:58:15;;;;;;;20.80;9.98;;;14.70;99.90;;;;;;12446822;28;20087;-40
2021/06/22 07:04:17;;;;;;;19.80;12.68;;;14.60;99.90;;;;;;12443195;28;20057;-40
2021/06/22 07:10:19;;;;;;;19.10;12.20;;;14.70;99.90;;;;;;12452894;28;20096;-39
2021/06/22 07:16:21;;;;;;;21.33;14.23;;;14.70;99.90;;;;;;12438402;28;20061;-38
2021/06/22 07:22:23;;;;;;;19.80;11.10;;;14.80;99.90;;;;;;12451447;28;20097;-41
2021/06/22 07:28:25;;;;;;;20.33;10.68;;;14.90;99.90;;;;;;12442514;28;20049;-38
2021/06/22 07:34:27;;;;;;;17.08;8.73;;;14.90;99.90;;;;;;12442809;28;20049;-40
2021/06/22 07:40:29;;;;;;;15.48;8.82;;;14.50;99.90;;;;;;12442973;28;20053;-39
2021/06/22 07:46:31;;;;;;;17.00;8.50;;;14.60;99.90;;;;;;12439452;28;20121;-42
2021/06/22 07:52:33;;;;;;;20.75;8.55;;;14.50;99.90;;;;;;12443797;28;20053;-39
2021/06/22 07:58:35;;;;;;;16.20;6.85;;;14.60;99.90;;;;;;12442401;28;20053;-39
2021/06/22 08:04:37;;;;;;;16.33;7.10;;;14.50;99.90;;;;;;12437317;28;20049;-39
2021/06/22 08:10:39;;;;;;;13.75;6.68;;;14.60;99.90;;;;;;12441215;28;20045;-39
2021/06/22 08:16:41;;;;;;;14.50;6.90;;;14.60;99.90;;;;;;12448345;28;20091;-39
2021/06/22 08:22:44;;;;;;;13.13;7.00;;;14.60;99.90;;;;;;12444886;28;20073;-39
2021/06/22 08:28:46;;;;;;;14.32;6.25;;;14.50;99.90;;;;;;12445315;28;20238;-41
2021/06/22 08:34:51;;;;;;;12.52;6.00;;;14.70;99.90;;;;;;12440502;28;20053;-39
2021/06/22 08:40:53;;;;;;;13.18;5.50;;;14.80;99.90;;;;;;12444184;28;20046;-41
2021/06/22 08:46:56;;;;;;;11.95;6.57;;;14.90;99.90;;;;;;12441373;28;20103;-40
2021/06/22 08:52:58;;;;;;;15.47;7.20;;;14.90;99.90;;;;;;12441281;28;20107;-39
2021/06/22 08:59:00;;;;;;;17.83;6.90;;;14.60;99.90;;;;;;12440892;28;20144;-43
2021/06/22 09:05:02;;;;;;;10.80;4.93;;;14.90;99.90;;;;;;12433820;28;20045;-39
2021/06/22 09:11:13;;;;;;;10.18;5.07;;;14.90;99.90;;;;;;12441072;28;20099;-40
2021/06/22 09:17:32;;;;;;;;;;;15.00;99.90;;;;;;12439038;28;20049;-40
2021/06/22 09:23:36;;;;;;;13.50;6.25;;;15.10;99.90;;;;;;12434907;28;19925;-39
2021/06/22 09:29:44;;;;;;;15.73;8.50;;;14.90;99.90;;;;;;12436501;28;20062;-40
2021/06/22 09:35:48;;;;;;;10.07;4.65;;;14.70;99.90;;;;;;12436014;28;20049;-39
2021/06/22 09:41:52;;;;;;;15.13;5.45;;;14.90;99.90;;;;;;12423829;28;20111;-39
2021/06/22 09:47:55;;;;;;;14.93;5.15;;;15.00;99.90;;;;;;12443132;28;20103;-39
2021/06/22 09:54:14;;;;;;;13.52;5.50;;;14.70;99.90;;;;;;12449581;28;20195;-39
2021/06/22 10:00:17;;;;;;;8.98;4.43;;;14.80;99.90;;;;;;12457239;28;20046;-39
2021/06/22 10:06:19;;;;;;;10.70;5.07;;;15.30;99.90;;;;;;12450600;28;20041;-39
2021/06/22 10:12:23;;;;;;;12.32;4.88;;;15.60;99.90;;;;;;12452969;28;20099;-41
2021/06/22 10:18:25;;;;;;;15.32;5.70;;;15.90;99.90;;;;;;12447566;28;20054;-39
2021/06/22 10:24:28;;;;;;;11.90;5.07;;;15.60;99.90;;;;;;12442183;28;20049;-40
2021/06/22 10:30:30;;;;;;;12.70;5.43;;;15.50;99.90;;;;;;12447165;28;20106;-39
2021/06/22 10:36:37;;;;;;;10.52;4.30;;;15.50;99.90;;;;;;12441060;28;20053;-39
2021/06/22 10:42:40;;;;;;;11.18;3.78;;;15.40;99.90;;;;;;12437992;28;20058;-39
2021/06/22 10:48:46;;;;;;;10.95;4.07;;;15.60;99.90;;;;;;12443207;28;20157;-40
2021/06/22 10:54:52;;;;;;;13.18;4.32;;;15.50;99.90;;;;;;12445009;28;20509;-40
2021/06/22 11:00:56;;;;;;;13.07;4.72;;;15.30;99.90;;;;;;12438627;28;20123;-39
2021/06/22 11:07:07;;;;;;;11.23;4.47;;;15.40;99.90;;;;;;12445457;28;20160;-40
2021/06/22 11:13:34;;;;;;;9.32;3.42;;;15.70;99.90;;;;;;12446320;28;20450;-39
2021/06/22 11:20:06;;;;;;;11.85;4.15;;;15.70;99.90;;;;;;12442602;28;20065;-40
2021/06/22 11:26:08;;;;;;;7.22;3.50;;;15.80;99.90;;;;;;12441685;28;20056;-39
2021/06/22 11:32:10;;;;;;;8.45;3.17;;;16.00;99.90;;;;;;12421749;28;20453;-40
2021/06/22 11:38:13;;;;;;;9.35;3.25;;;16.40;99.90;;;;;;12390180;28;20153;-39
2021/06/22 11:44:15;;;;;;;7.93;3.75;;;16.60;99.90;;;;;;12390230;28;20050;-39
2021/06/22 11:50:26;;;;;;;8.27;3.55;;;16.20;99.90;;;;;;12394163;28;20049;-39
2021/06/22 11:56:28;;;;;;;8.43;3.22;;;16.20;99.90;;;;;;12392717;28;20119;-39
2021/06/22 12:02:30;;;;;;;10.57;3.95;;;16.50;99.90;;;;;;12391938;28;20582;-39
2021/06/22 12:08:34;;;;;;;8.50;3.70;;;17.10;99.90;;;;;;12389882;28;20212;-40
2021/06/22 12:14:46;;;;;;;7.20;3.95;;;17.30;99.90;;;;;;12389869;28;20376;-39
2021/06/22 12:20:51;;;;;;;9.15;3.80;;;17.70;99.90;;;;;;12390646;28;20046;-40
2021/06/22 12:26:53;;;;;;;9.95;3.75;;;17.60;99.90;;;;;;12384762;28;20058;-39
2021/06/22 12:32:55;;;;;;;12.38;3.88;;;17.60;99.90;;;;;;12394734;28;20468;-38
2021/06/22 12:38:59;;;;;;;7.43;3.70;;;17.50;99.90;;;;;;12396505;28;20590;-41
2021/06/22 12:45:12;;;;;;;7.85;3.55;;;17.70;99.90;;;;;;12392534;28;20149;-40
2021/06/22 12:51:15;;;;;;;5.85;2.67;;;18.00;99.90;;;;;;12387808;28;20180;-39
2021/06/22 12:57:22;;;;;;;6.15;3.05;;;18.20;99.90;;;;;;12392075;28;20054;-39
2021/06/22 13:03:24;;;;;;;7.40;3.30;;;19.30;99.90;;;;;;12386121;28;20491;-39
2021/06/22 13:09:26;;;;;;;7.75;3.28;;;19.30;99.90;;;;;;12391337;28;20439;-39
2021/06/22 13:15:30;;;;;;;11.27;3.45;;;18.70;99.90;;;;;;12387377;28;20103;-39
2021/06/22 13:21:45;;;;;;;9.32;3.42;;;17.50;99.90;;;;;;12396418;28;20093;-40
2021/06/22 13:27:55;;;;;;;9.77;4.18;;;17.30;99.90;;;;;;12395172;28;20099;-42
2021/06/22 13:34:01;;;;;;;13.80;4.32;;;17.30;99.90;;;;;;12399970;28;20111;-39
2021/06/22 13:40:08;;;;;;;7.68;3.50;;;18.00;99.90;;;;;;12398056;28;20046;-39
2021/06/22 13:46:18;;;;;;;6.50;3.10;;;18.20;99.90;;;;;;12390065;28;20046;-41
2021/06/22 13:52:20;;;;;;;11.55;3.88;;;18.30;99.90;;;;;;12418499;28;20457;-39
2021/06/22 13:58:22;;;;;;;11.45;3.90;;;18.40;99.90;;;;;;12444560;28;20107;-39
2021/06/22 14:04:24;;;;;;;9.43;3.65;;;17.70;99.90;;;;;;12392631;28;20062;-39
2021/06/22 14:10:30;;;;;;;9.23;3.58;;;18.10;99.90;;;;;;12389419;28;20439;-39
2021/06/22 14:16:34;;;;;;;6.78;3.85;;;19.10;99.90;;;;;;12393307;28;20141;-40
2021/06/22 14:22:39;;;;;;;10.85;3.75;;;19.80;99.90;;;;;;12396515;28;20495;-39
2021/06/22 14:28:40;;;;;;;7.63;3.85;;;19.90;99.90;;;;;;12387626;28;20065;-40
2021/06/22 14:34:43;;;;;;;7.82;4.38;;;19.10;99.90;;;;;;12393879;28;20612;-39
2021/06/22 14:40:45;;;;;;;11.05;4.80;;;18.50;99.90;;;;;;12385205;28;20140;-40
2021/06/22 14:46:46;;;;;;;10.07;5.50;;;18.40;99.90;;;;;;12387159;28;20054;-39
2021/06/22 14:52:49;;;;;;;7.32;4.90;;;19.20;99.90;;;;;;12386488;28;20124;-39
2021/06/22 14:58:51;;;;;;;11.57;5.07;;;19.30;99.90;;;;;;12392184;28;20165;-39
2021/06/22 15:04:53;;;;;;;7.85;5.40;;;19.70;99.90;;;;;;12383555;28;20066;-40
2021/06/22 15:10:55;;;;;;;10.73;4.68;;;19.90;99.90;;;;;;12388559;28;20250;-39
2021/06/22 15:16:57;;;;;;;8.13;4.93;;;19.60;99.90;;;;;;12391504;28;20165;-39
2021/06/22 15:22:59;;;;;;;7.03;4.88;;;19.30;99.90;;;;;;12389860;28;20054;-39
2021/06/22 15:29:20;;;;;;;10.73;5.45;;;19.50;99.90;;;;;;12389914;28;20054;-39
2021/06/22 15:35:22;;;;;;;12.90;5.13;;;18.80;99.90;;;;;;12384208;28;20133;-39
2021/06/22 15:41:25;;;;;;;7.90;4.28;;;19.70;99.90;;;;;;12383787;28;20054;-39
2021/06/22 15:47:27;;;;;;;7.60;4.40;;;19.80;99.90;;;;;;12384547;28;20141;-39
2021/06/22 15:53:29;;;;;;;9.18;4.18;;;19.80;99.90;;;;;;12386788;28;20108;-40
2021/06/22 15:59:31;;;;;;;6.60;4.15;;;19.40;99.90;;;;;;12386612;28;20061;-40
2021/06/22 16:05:33;;;;;;;7.18;4.40;;;19.90;99.90;;;;;;12389889;28;20166;-40
2021/06/22 16:11:36;;;;;;;11.40;4.40;;;20.50;99.90;;;;;;12391438;28;20054;-40
2021/06/22 16:17:38;;;;;;;9.50;3.95;;;19.90;99.90;;;;;;12388929;28;20061;-40
2021/06/22 16:23:41;;;;;;;9.00;4.18;;;19.60;99.90;;;;;;12378394;28;20054;-40
2021/06/22 16:29:44;;;;;;;12.53;3.97;;;18.90;99.90;;;;;;12382026;28;20463;-39
2021/06/22 16:35:47;;;;;;;8.43;4.63;;;18.10;99.90;;;;;;12380364;28;20588;-40
2021/06/22 16:41:48;;;;;;;9.55;4.10;;;18.10;99.90;;;;;;12383036;28;20078;-41
2021/06/22 16:47:52;;;;;;;8.52;3.85;;;18.10;99.90;;;;;;12378993;28;20509;-39
2021/06/22 16:53:57;;;;;;;13.07;3.92;;;17.90;99.90;;;;;;12384875;28;20056;-39
2021/06/22 16:59:59;;;;;;;11.05;4.18;;;18.00;99.90;;;;;;12388479;28;20062;-41
2021/06/22 17:06:01;;;;;;;9.23;3.60;;;17.90;99.90;;;;;;12442487;28;20794;-39
2021/06/22 17:12:03;;;;;;;10.93;3.83;;;17.80;99.90;;;;;;12422117;28;20054;-39
2021/06/22 17:18:06;;;;;;;8.48;4.00;;;17.80;99.90;;;;;;12392652;28;20054;-40
2021/06/22 17:24:08;;;;;;;9.95;3.80;;;17.80;99.90;;;;;;12399549;28;20050;-39
2021/06/22 17:30:12;;;;;;;8.30;4.22;;;17.70;99.90;;;;;;12396221;28;20108;-39
2021/06/22 17:36:14;;;;;;;9.37;4.23;;;17.40;99.90;;;;;;12399983;28;20046;-40
2021/06/22 17:42:16;;;;;;;10.70;4.72;;;17.30;99.90;;;;;;12394622;28;20054;-39
2021/06/22 17:48:18;;;;;;;11.65;4.40;;;17.20;99.90;;;;;;12399312;28;20165;-40
2021/06/22 17:54:20;;;;;;;10.38;4.00;;;17.20;99.90;;;;;;12400008;28;20058;-40
2021/06/22 18:00:25;;;;;;;12.43;4.18;;;17.10;99.90;;;;;;12395747;28;20054;-38
2021/06/22 18:06:29;;;;;;;11.20;3.63;;;17.20;99.90;;;;;;12397183;28;20042;-39
2021/06/22 18:12:30;;;;;;;10.10;4.10;;;17.00;99.90;;;;;;12398921;28;20057;-40
2021/06/22 18:18:33;;;;;;;11.57;3.88;;;16.90;99.90;;;;;;12398887;28;22876;-39
2021/06/22 18:24:35;;;;;;;12.43;3.42;;;16.80;99.90;;;;;;12398864;28;20046;-39
2021/06/22 18:30:37;;;;;;;9.75;3.67;;;16.70;99.90;;;;;;12394550;28;20046;-38
2021/06/22 18:36:38;;;;;;;13.15;3.90;;;16.70;99.90;;;;;;12396437;28;20057;-39
2021/06/22 18:42:43;;;;;;;12.20;4.45;;;16.70;99.90;;;;;;12394789;28;20050;-39
2021/06/22 18:48:45;;;;;;;10.90;3.38;;;16.40;99.90;;;;;;12391533;28;20055;-39
2021/06/22 18:54:47;;;;;;;9.75;4.00;;;16.50;99.90;;;;;;12393011;28;20050;-38
2021/06/22 19:00:49;;;;;;;13.13;4.03;;;16.40;99.90;;;;;;12390122;28;20050;-39
2021/06/22 19:06:51;;;;;;;8.45;3.65;;;16.40;99.90;;;;;;12399086;28;20061;-40
2021/06/22 19:12:53;;;;;;;8.88;3.67;;;16.20;99.90;;;;;;12394989;28;20058;-39
2021/06/22 19:18:55;;;;;;;14.20;4.00;;;16.40;99.90;;;;;;12393474;28;20144;-40
2021/06/22 19:24:57;;;;;;;9.95;3.83;;;16.20;99.90;;;;;;12393638;28;20042;-40
2021/06/22 19:31:01;;;;;;;9.00;4.07;;;16.00;99.90;;;;;;12392352;28;20507;-39
2021/06/22 19:37:03;;;;;;;12.35;4.00;;;15.90;99.90;;;;;;12392477;28;20050;-39
2021/06/22 19:43:05;;;;;;;12.95;4.18;;;15.90;99.90;;;;;;12390226;28;20042;-39
2021/06/22 19:49:07;;;;;;;8.98;3.80;;;15.80;99.90;;;;;;12390475;28;20046;-39
2021/06/22 19:55:11;;;;;;;10.20;3.47;;;15.80;99.90;;;;;;12391775;28;20042;-39
2021/06/22 20:01:16;;;;;;;10.80;3.50;;;15.70;99.90;;;;;;12388213;28;20068;-38
2021/06/22 20:07:18;;;;;;;9.30;3.00;;;15.70;99.90;;;;;;12390704;28;20645;-39
2021/06/22 20:13:20;;;;;;;12.07;3.13;;;15.70;99.90;;;;;;12392300;28;20107;-39
2021/06/22 20:19:24;;;;;;;12.32;3.08;;;15.60;99.90;;;;;;12392273;28;20483;-39
2021/06/22 20:25:26;;;;;;;12.35;2.90;;;15.70;99.90;;;;;;12392677;28;20137;-39
2021/06/22 20:31:46;;;;;;;11.68;3.35;;;15.70;99.90;;;;;;12388833;28;20050;-39
2021/06/22 20:37:48;;;;;;;10.00;3.03;;;15.70;99.90;;;;;;12387745;28;20069;-42
2021/06/22 20:43:50;;;;;;;9.60;3.20;;;15.70;99.90;;;;;;12387383;28;20526;-38
2021/06/22 20:49:53;;;;;;;13.70;4.13;;;15.60;99.90;;;;;;12392387;28;20096;-40
2021/06/22 20:55:55;;;;;;;11.20;3.77;;;15.50;99.90;;;;;;12386817;28;20559;-41
2021/06/22 21:01:57;;;;;;;10.88;3.90;;;15.50;99.90;;;;;;12388252;28;20430;-40
2021/06/22 21:07:59;;;;;;;8.00;3.90;;;15.30;99.90;;;;;;12391289;28;20046;-39
2021/06/22 21:14:01;;;;;;;14.88;4.55;;;15.20;99.90;;;;;;12392660;28;20085;-39
2021/06/22 21:20:08;;;;;;;11.68;4.38;;;15.20;99.90;;;;;;12389697;28;20153;-39
2021/06/22 21:26:09;;;;;;;9.98;4.32;;;15.20;99.90;;;;;;12393199;28;20177;-40
2021/06/22 21:32:12;;;;;;;9.18;4.30;;;14.90;99.90;;;;;;12393779;28;20088;-39
2021/06/22 21:38:13;;;;;;;13.35;4.60;;;14.80;99.90;;;;;;12385982;28;20050;-40
2021/06/22 21:44:15;;;;;;;15.38;4.85;;;14.60;99.90;;;;;;12392055;28;20045;-39
2021/06/22 21:50:22;;;;;;;16.95;5.00;;;14.80;99.90;;;;;;12395817;28;20060;-40
2021/06/22 21:56:24;;;;;;;10.47;4.73;;;14.70;99.90;;;;;;12398678;28;20432;-39
2021/06/22 22:02:27;;;;;;;14.18;5.28;;;14.60;99.90;;;;;;12397147;28;20900;-39
2021/06/22 22:08:29;;;;;;;15.88;5.28;;;14.70;99.90;;;;;;12398165;28;20166;-39
2021/06/22 22:14:31;;;;;;;11.70;5.30;;;14.60;99.90;;;;;;12400589;28;20058;-40
2021/06/22 22:20:33;;;;;;;12.63;5.43;;;14.60;99.90;;;;;;12397732;28;20046;-40
2021/06/22 22:26:35;;;;;;;11.30;5.25;;;14.40;99.90;;;;;;12396170;28;20153;-39
2021/06/22 22:32:38;;;;;;;14.95;6.15;;;14.40;99.90;;;;;;12398149;28;20092;-39
2021/06/22 22:38:40;;;;;;;14.18;5.05;;;14.30;99.90;;;;;;12394839;28;20142;-39
2021/06/22 22:44:43;;;;;;;16.10;5.63;;;14.10;99.90;;;;;;12395656;28;20057;-39
2021/06/22 22:50:45;;;;;;;11.60;5.30;;;14.00;99.90;;;;;;12395435;28;20164;-39
2021/06/22 22:56:47;;;;;;;14.70;5.95;;;14.10;99.90;;;;;;12391986;28;20119;-39
2021/06/22 23:02:49;;;;;;;14.15;6.03;;;14.10;99.90;;;;;;12402678;28;20161;-40
2021/06/22 23:08:50;;;;;;;11.00;5.80;;;14.20;99.90;;;;;;12394244;28;20055;-39
2021/06/22 23:14:52;;;;;;;11.73;6.30;;;14.00;99.90;;;;;;12395200;28;20128;-39
2021/06/22 23:20:54;;;;;;;14.07;5.95;;;14.00;99.90;;;;;;12394639;28;20132;-39
2021/06/22 23:26:56;;;;;;;12.15;6.28;;;13.90;99.90;;;;;;12393992;28;20149;-39
2021/06/22 23:32:58;;;;;;;14.75;6.30;;;13.80;99.90;;;;;;12395748;28;20057;-39
2021/06/22 23:39:02;;;;;;;13.18;6.30;;;13.90;99.90;;;;;;12399259;28;20137;-41
2021/06/22 23:45:05;;;;;;;16.52;6.35;;;13.80;99.90;;;;;;12390696;28;20164;-39
2021/06/22 23:51:07;;;;;;;15.27;6.60;;;13.80;99.90;;;;;;12391041;28;20093;-39
2021/06/22 23:57:08;;;;;;;12.98;5.93;;;13.80;99.90;;;;;;12424749;28;20125;-40
